createdAt,value
2018-03-30T00:00:49.857Z,34.42
2018-03-30T00:01:59.046Z,35.40
2018-03-30T00:03:01.623Z,35.42
2018-03-30T00:04:04.100Z,36.20
2018-03-30T00:05:06.576Z,37.05
2018-03-30T00:06:09.073Z,42.65
2018-03-30T00:07:11.553Z,35.38
2018-03-30T00:08:14.563Z,35.35
2018-03-30T00:09:28.984Z,37.33
2018-03-30T00:10:31.459Z,32.85
2018-03-30T00:11:35.349Z,38.22
2018-03-30T00:12:37.857Z,41.20
2018-03-30T00:13:40.417Z,37.35
2018-03-30T00:14:42.887Z,33.75
2018-03-30T00:15:45.362Z,36.22
2018-03-30T00:16:47.845Z,31.50
2018-03-30T00:17:51.112Z,36.63
2018-03-30T00:18:53.570Z,35.47
2018-03-30T00:19:56.225Z,35.85
2018-03-30T00:20:58.690Z,36.55
2018-03-30T00:22:01.212Z,36.00
2018-03-30T00:23:03.725Z,35.55
2018-03-30T00:24:06.970Z,37.15
2018-03-30T00:25:09.501Z,36.45
2018-03-30T00:26:11.995Z,40.85
2018-03-30T00:27:14.459Z,36.63
2018-03-30T00:28:16.942Z,40.65
2018-03-30T00:29:19.430Z,37.83
2018-03-30T00:30:22.108Z,38.53
2018-03-30T00:31:25.344Z,38.58
2018-03-30T00:32:27.839Z,41.65
2018-03-30T00:33:30.319Z,36.75
2018-03-30T00:34:32.818Z,38.38
2018-03-30T00:35:35.379Z,41.47
2018-03-30T00:36:37.912Z,39.90
2018-03-30T00:37:40.396Z,42.22
2018-03-30T00:38:42.876Z,41.25
2018-03-30T00:39:45.385Z,42.58
2018-03-30T00:40:47.874Z,39.78
2018-03-30T00:41:51.104Z,40.53
2018-03-30T00:42:53.592Z,35.80
2018-03-30T00:43:56.065Z,38.83
2018-03-30T00:44:59.345Z,37.40
2018-03-30T00:46:01.820Z,38.33
2018-03-30T00:47:04.368Z,42.10
2018-03-30T00:48:06.835Z,42.33
2018-03-30T00:49:09.300Z,39.53
2018-03-30T00:50:11.795Z,41.30
2018-03-30T00:51:14.262Z,36.28
2018-03-30T00:52:17.511Z,42.13
2018-03-30T00:53:32.822Z,35.50
2018-03-30T00:54:35.288Z,39.63
2018-03-30T00:55:37.827Z,39.75
2018-03-30T00:56:40.547Z,35.58
2018-03-30T00:57:43.003Z,40.38
2018-03-30T00:58:46.242Z,39.30
2018-03-30T00:59:50.171Z,35.78
2018-03-30T01:00:52.660Z,38.33
2018-03-30T01:01:55.913Z,40.65
2018-03-30T01:02:58.387Z,41.63
2018-03-30T01:04:00.867Z,47.03
2018-03-30T01:05:03.328Z,38.42
2018-03-30T01:06:05.827Z,39.15
2018-03-30T01:07:08.368Z,38.53
2018-03-30T01:08:10.839Z,40.78
2018-03-30T01:09:13.298Z,40.50
2018-03-30T01:10:15.799Z,39.65
2018-03-30T01:11:19.041Z,36.97
2018-03-30T01:12:22.277Z,39.35
2018-03-30T01:13:25.524Z,38.80
2018-03-30T01:14:28.775Z,42.17
2018-03-30T01:15:31.284Z,36.55
2018-03-30T01:16:33.759Z,42.10
2018-03-30T01:17:36.296Z,38.75
2018-03-30T01:18:38.784Z,34.72
2018-03-30T01:19:41.289Z,39.22
2018-03-30T01:20:44.525Z,44.65
2018-03-30T01:21:46.995Z,39.83
2018-03-30T01:22:49.464Z,40.25
2018-03-30T01:23:51.954Z,39.22
2018-03-30T01:24:54.502Z,41.08
2018-03-30T01:25:56.986Z,46.97
2018-03-30T01:26:59.478Z,40.38
2018-03-30T01:28:01.965Z,39.40
2018-03-30T01:29:04.444Z,44.03
2018-03-30T01:30:07.701Z,41.08
2018-03-30T01:31:10.208Z,43.05
2018-03-30T01:32:13.445Z,35.88
2018-03-30T01:33:16.690Z,41.42
2018-03-30T01:34:19.929Z,44.15
2018-03-30T01:35:23.186Z,43.17
2018-03-30T01:36:25.736Z,47.72
2018-03-30T01:37:28.282Z,40.38
2018-03-30T01:38:30.802Z,45.67
2018-03-30T01:39:33.690Z,39.50
2018-03-30T01:40:36.982Z,45.20
2018-03-30T01:41:39.447Z,43.58
2018-03-30T01:42:43.439Z,40.47
2018-03-30T01:43:45.925Z,42.97
2018-03-30T01:44:49.193Z,47.53
2018-03-30T01:45:51.685Z,45.88
2018-03-30T01:46:54.178Z,45.70
2018-03-30T01:47:56.662Z,47.53
2018-03-30T01:48:59.962Z,41.88
2018-03-30T01:50:02.476Z,44.72
2018-03-30T01:51:04.958Z,43.38
2018-03-30T01:52:08.223Z,45.05
2018-03-30T01:53:10.718Z,49.15
2018-03-30T01:54:13.950Z,46.88
2018-03-30T01:55:16.485Z,46.42
2018-03-30T01:56:18.975Z,43.50
2018-03-30T01:57:21.469Z,48.53
2018-03-30T01:58:23.948Z,46.58
2018-03-30T01:59:26.497Z,45.60
2018-03-30T02:00:29.776Z,46.25
2018-03-30T02:01:32.249Z,45.05
2018-03-30T02:02:34.735Z,46.95
2018-03-30T02:03:37.253Z,50.75
2018-03-30T02:04:39.750Z,46.10
2018-03-30T02:05:42.257Z,44.65
2018-03-30T02:06:45.499Z,47.20
2018-03-30T02:07:48.005Z,47.30
2018-03-30T02:08:50.983Z,50.05
2018-03-30T02:09:53.478Z,53.17
2018-03-30T02:10:56.038Z,54.38
2018-03-30T02:11:59.012Z,52.13
2018-03-30T02:13:01.511Z,54.78
2018-03-30T02:14:04.018Z,54.90
2018-03-30T02:15:07.270Z,51.20
2018-03-30T02:16:09.784Z,50.88
2018-03-30T02:17:12.331Z,51.88
2018-03-30T02:18:14.827Z,50.10
2018-03-30T02:19:17.300Z,49.28
2018-03-30T02:20:19.822Z,54.45
2018-03-30T02:21:22.350Z,52.42
2018-03-30T02:22:24.833Z,51.55
2018-03-30T02:23:28.062Z,52.38
2018-03-30T02:24:31.675Z,53.47
2018-03-30T02:25:34.149Z,53.95
2018-03-30T02:26:37.404Z,51.90
2018-03-30T02:27:39.879Z,52.40
2018-03-30T02:28:42.467Z,62.25
2018-03-30T02:29:45.032Z,55.75
2018-03-30T02:30:47.615Z,49.50
2018-03-30T02:31:50.174Z,59.00
2018-03-30T02:32:52.642Z,60.58
2018-03-30T02:33:55.890Z,52.80
2018-03-30T02:34:59.127Z,53.67
2018-03-30T02:36:02.410Z,58.22
2018-03-30T02:37:04.883Z,57.58
2018-03-30T02:38:07.348Z,57.30
2018-03-30T02:39:09.830Z,62.60
2018-03-30T02:40:12.839Z,64.28
2018-03-30T02:41:15.327Z,65.68
2018-03-30T02:42:18.579Z,62.90
2018-03-30T02:43:21.089Z,63.95
2018-03-30T02:44:23.569Z,61.00
2018-03-30T02:45:26.066Z,65.72
2018-03-30T02:46:28.566Z,63.03
2018-03-30T02:47:31.062Z,61.55
2018-03-30T02:48:34.325Z,60.55
2018-03-30T02:49:36.826Z,57.47
2018-03-30T02:50:40.106Z,63.42
2018-03-30T02:51:42.609Z,61.37
2018-03-30T02:52:45.075Z,56.53
2018-03-30T02:53:47.580Z,63.33
2018-03-30T02:54:50.122Z,65.65
2018-03-30T02:55:52.601Z,62.50
2018-03-30T02:56:55.075Z,64.85
2018-03-30T02:57:57.599Z,59.25
2018-03-30T02:59:00.094Z,59.90
2018-03-30T03:00:03.352Z,63.75
2018-03-30T03:01:05.905Z,61.05
2018-03-30T03:02:08.416Z,65.20
2018-03-30T03:03:10.921Z,64.28
2018-03-30T03:04:13.399Z,60.50
2018-03-30T03:05:15.877Z,59.83
2018-03-30T03:06:19.129Z,61.03
2018-03-30T03:07:21.647Z,57.30
2018-03-30T03:08:24.930Z,61.15
2018-03-30T03:09:27.395Z,59.65
2018-03-30T03:10:30.631Z,58.38
2018-03-30T03:11:33.872Z,61.92
2018-03-30T03:12:36.374Z,68.55
2018-03-30T03:13:38.974Z,61.37
2018-03-30T03:14:41.508Z,65.05
2018-03-30T03:15:43.965Z,63.30
2018-03-30T03:16:46.488Z,55.72
2018-03-30T03:17:49.099Z,63.92
2018-03-30T03:18:51.562Z,59.00
2018-03-30T03:19:54.835Z,59.08
2018-03-30T03:20:57.308Z,60.35
2018-03-30T03:21:59.775Z,57.85
2018-03-30T03:23:02.242Z,55.97
2018-03-30T03:24:04.751Z,60.28
2018-03-30T03:25:07.328Z,58.08
2018-03-30T03:26:09.865Z,56.20
2018-03-30T03:27:12.347Z,66.45
2018-03-30T03:28:14.826Z,60.35
2018-03-30T03:29:17.339Z,54.53
2018-03-30T03:30:20.570Z,58.87
2018-03-30T03:31:23.836Z,63.80
2018-03-30T03:32:26.296Z,57.33
2018-03-30T03:33:28.782Z,61.28
2018-03-30T03:34:31.352Z,60.72
2018-03-30T03:35:33.852Z,52.40
2018-03-30T03:36:36.391Z,68.05
2018-03-30T03:37:38.893Z,63.03
2018-03-30T03:38:41.378Z,60.15
2018-03-30T03:39:44.150Z,58.03
2018-03-30T03:40:46.594Z,66.28
2018-03-30T03:41:49.063Z,64.20
2018-03-30T03:42:51.595Z,61.85
2018-03-30T03:43:54.839Z,64.85
2018-03-30T03:44:58.077Z,69.60
2018-03-30T03:46:01.356Z,63.42
2018-03-30T03:47:03.827Z,64.15
2018-03-30T03:48:07.678Z,59.88
2018-03-30T03:49:10.159Z,59.85
2018-03-30T03:50:12.647Z,66.28
2018-03-30T03:51:15.466Z,62.53
2018-03-30T03:52:17.940Z,58.28
2018-03-30T03:53:20.423Z,65.55
2018-03-30T03:54:22.887Z,66.40
2018-03-30T03:55:25.407Z,66.90
2018-03-30T03:56:27.938Z,63.80
2018-03-30T03:57:30.420Z,61.88
2018-03-30T03:58:33.676Z,71.50
2018-03-30T03:59:36.181Z,59.72
2018-03-30T04:00:38.675Z,62.67
2018-03-30T04:01:41.189Z,60.97
2018-03-30T04:02:43.700Z,61.00
2018-03-30T04:03:46.995Z,64.95
2018-03-30T04:04:49.538Z,66.60
2018-03-30T04:05:53.520Z,60.10
2018-03-30T04:06:56.782Z,61.90
2018-03-30T04:07:59.290Z,61.30
2018-03-30T04:09:02.545Z,63.78
2018-03-30T04:10:05.052Z,62.17
2018-03-30T04:11:07.612Z,62.25
2018-03-30T04:12:10.156Z,64.50
2018-03-30T04:13:13.016Z,64.75
2018-03-30T04:14:15.491Z,66.00
2018-03-30T04:15:17.973Z,62.20
2018-03-30T04:16:20.467Z,65.72
2018-03-30T04:17:22.958Z,62.62
2018-03-30T04:18:25.435Z,63.55
2018-03-30T04:19:28.720Z,62.40
2018-03-30T04:20:32.174Z,60.92
2018-03-30T04:21:34.651Z,62.13
2018-03-30T04:22:37.135Z,63.78
2018-03-30T04:23:39.596Z,64.87
2018-03-30T04:24:42.103Z,60.42
2018-03-30T04:25:44.567Z,64.75
2018-03-30T04:26:47.796Z,63.33
2018-03-30T04:27:50.267Z,67.78
2018-03-30T04:28:52.740Z,74.97
2018-03-30T04:29:55.224Z,65.53
2018-03-30T04:30:57.712Z,73.65
2018-03-30T04:32:00.192Z,65.10
2018-03-30T04:33:02.715Z,64.72
2018-03-30T04:34:05.919Z,64.32
2018-03-30T04:35:09.203Z,64.35
2018-03-30T04:36:11.666Z,69.93
2018-03-30T04:37:14.909Z,65.80
2018-03-30T04:38:17.390Z,70.07
2018-03-30T04:39:19.912Z,68.57
2018-03-30T04:40:23.131Z,63.28
2018-03-30T04:41:26.373Z,65.15
2018-03-30T04:42:28.877Z,64.78
2018-03-30T04:43:31.357Z,66.87
2018-03-30T04:44:33.906Z,71.85
2018-03-30T04:45:36.382Z,65.47
2018-03-30T04:46:38.895Z,66.65
2018-03-30T04:47:42.122Z,75.03
2018-03-30T04:48:45.360Z,67.90
2018-03-30T04:49:48.592Z,62.15
2018-03-30T04:50:51.102Z,69.55
2018-03-30T04:51:53.595Z,69.03
2018-03-30T04:52:56.076Z,63.33
2018-03-30T04:53:58.578Z,63.00
2018-03-30T04:55:01.073Z,65.62
2018-03-30T04:56:03.548Z,64.72
2018-03-30T04:57:06.097Z,63.33
2018-03-30T04:58:09.382Z,61.08
2018-03-30T04:59:11.941Z,69.35
2018-03-30T05:00:14.463Z,58.72
2018-03-30T05:01:16.948Z,67.22
2018-03-30T05:02:19.480Z,64.90
2018-03-30T05:03:22.038Z,67.72
2018-03-30T05:04:24.606Z,72.05
2018-03-30T05:05:27.086Z,61.97
2018-03-30T05:06:29.543Z,64.70
2018-03-30T05:07:32.828Z,71.15
2018-03-30T05:08:35.306Z,63.13
2018-03-30T05:09:37.765Z,70.43
2018-03-30T05:10:40.222Z,68.32
2018-03-30T05:11:42.740Z,69.00
2018-03-30T05:12:45.259Z,67.75
2018-03-30T05:13:47.755Z,65.95
2018-03-30T05:14:50.284Z,65.87
2018-03-30T05:15:52.754Z,61.25
2018-03-30T05:16:55.216Z,62.75
2018-03-30T05:17:59.065Z,58.08
2018-03-30T05:19:02.326Z,65.72
2018-03-30T05:20:04.836Z,63.47
2018-03-30T05:21:07.968Z,59.92
2018-03-30T05:22:11.283Z,67.80
2018-03-30T05:23:13.809Z,58.87
2018-03-30T05:24:16.303Z,61.20
2018-03-30T05:25:18.781Z,68.12
2018-03-30T05:26:21.269Z,66.70
2018-03-30T05:27:24.266Z,59.30
2018-03-30T05:28:27.587Z,64.68
2018-03-30T05:29:30.058Z,63.50
2018-03-30T05:30:32.608Z,61.47
2018-03-30T05:31:35.088Z,61.80
2018-03-30T05:32:38.349Z,57.60
2018-03-30T05:33:40.809Z,62.13
2018-03-30T05:34:43.387Z,58.58
2018-03-30T05:35:45.888Z,61.45
2018-03-30T05:36:49.144Z,63.70
2018-03-30T05:37:52.414Z,55.30
2018-03-30T05:38:54.944Z,59.03
2018-03-30T05:39:57.412Z,59.60
2018-03-30T05:40:59.927Z,58.47
2018-03-30T05:42:03.922Z,59.65
2018-03-30T05:43:07.227Z,59.63
2018-03-30T05:44:09.708Z,61.05
2018-03-30T05:45:12.189Z,53.90
2018-03-30T05:46:14.731Z,62.88
2018-03-30T05:47:18.712Z,61.05
2018-03-30T05:48:21.186Z,59.47
2018-03-30T05:49:23.694Z,53.95
2018-03-30T05:50:26.196Z,58.72
2018-03-30T05:51:28.716Z,60.25
2018-03-30T05:52:31.222Z,59.90
2018-03-30T05:53:34.445Z,61.03
2018-03-30T05:54:37.654Z,62.95
2018-03-30T05:55:40.114Z,59.55
2018-03-30T05:56:42.622Z,62.65
2018-03-30T05:57:45.098Z,60.10
2018-03-30T05:58:47.585Z,61.35
2018-03-30T05:59:50.061Z,59.42
2018-03-30T06:00:52.582Z,58.08
2018-03-30T06:01:55.135Z,59.90
2018-03-30T06:02:57.608Z,57.55
2018-03-30T06:04:00.847Z,63.97
2018-03-30T06:05:04.074Z,60.17
2018-03-30T06:06:06.591Z,63.33
2018-03-30T06:07:09.069Z,58.30
2018-03-30T06:08:11.611Z,63.35
2018-03-30T06:09:14.073Z,55.47
2018-03-30T06:10:16.541Z,59.63
2018-03-30T06:11:19.056Z,56.85
2018-03-30T06:12:21.546Z,58.45
2018-03-30T06:13:24.826Z,58.22
2018-03-30T06:14:27.287Z,55.75
2018-03-30T06:15:29.937Z,56.17
2018-03-30T06:16:32.479Z,58.60
2018-03-30T06:17:34.983Z,57.80
2018-03-30T06:18:37.437Z,52.20
2018-03-30T06:19:40.703Z,57.25
2018-03-30T06:20:43.187Z,57.22
2018-03-30T06:21:45.683Z,54.88
2018-03-30T06:22:48.205Z,58.03
2018-03-30T06:23:50.721Z,51.85
2018-03-30T06:26:02.072Z,50.12
2018-03-30T06:27:04.675Z,46.00
2018-03-30T06:28:09.671Z,45.50
2018-03-30T06:29:12.182Z,40.55
2018-03-30T06:30:14.657Z,43.25
2018-03-30T06:31:17.134Z,40.35
2018-03-30T06:32:19.690Z,43.35
2018-03-30T06:33:22.183Z,40.12
2018-03-30T06:34:24.677Z,38.38
2018-03-30T06:35:27.155Z,40.25
2018-03-30T06:36:29.729Z,38.80
2018-03-30T06:37:32.220Z,38.10
2018-03-30T06:38:35.577Z,35.10
2018-03-30T06:39:38.038Z,32.97
2018-03-30T06:40:40.519Z,30.42
2018-03-30T06:41:43.835Z,32.53
2018-03-30T06:42:47.137Z,30.27
2018-03-30T06:43:49.597Z,30.65
2018-03-30T06:44:52.080Z,32.17
2018-03-30T06:45:54.594Z,30.35
2018-03-30T06:46:57.114Z,32.20
2018-03-30T06:48:00.357Z,26.65
2018-03-30T06:49:03.639Z,25.30
2018-03-30T06:50:06.135Z,31.15
2018-03-30T06:51:08.608Z,31.33
2018-03-30T06:52:11.816Z,30.83
2018-03-30T06:53:14.296Z,31.25
2018-03-30T06:54:17.566Z,29.73
2018-03-30T06:55:20.046Z,30.08
2018-03-30T06:56:22.564Z,29.08
2018-03-30T06:57:25.039Z,35.88
2018-03-30T06:58:27.589Z,29.60
2018-03-30T06:59:30.067Z,29.87
2018-03-30T07:00:32.579Z,32.25
2018-03-30T07:01:35.837Z,31.60
2018-03-30T07:02:39.095Z,33.17
2018-03-30T07:03:41.683Z,32.10
2018-03-30T07:04:44.274Z,30.25
2018-03-30T07:05:47.516Z,30.35
2018-03-30T07:06:50.022Z,25.40
2018-03-30T07:07:52.505Z,32.42
2018-03-30T07:08:54.987Z,32.83
2018-03-30T07:09:58.305Z,30.52
2018-03-30T07:11:00.893Z,31.98
2018-03-30T07:12:03.421Z,32.95
2018-03-30T07:13:05.894Z,27.92
2018-03-30T07:14:08.389Z,24.90
2018-03-30T07:15:11.296Z,24.70
2018-03-30T07:16:13.811Z,26.52
2018-03-30T07:17:16.314Z,26.30
2018-03-30T07:18:18.837Z,27.08
2018-03-30T07:19:21.337Z,108.82
2018-03-30T07:20:24.662Z,31.35
2018-03-30T07:21:27.947Z,31.73
2018-03-30T07:22:30.476Z,26.02
2018-03-30T07:23:33.045Z,41.30
2018-03-30T07:24:35.513Z,26.02
2018-03-30T07:25:38.754Z,76.85
2018-03-30T07:26:41.302Z,30.65
2018-03-30T07:27:43.825Z,26.10
2018-03-30T07:28:47.071Z,27.70
2018-03-30T07:29:49.791Z,25.80
2018-03-30T07:30:52.343Z,26.60
2018-03-30T07:31:54.918Z,22.83
2018-03-30T07:32:57.441Z,26.00
2018-03-30T07:34:00.693Z,27.70
2018-03-30T07:35:03.238Z,26.42
2018-03-30T07:36:05.747Z,28.27
2018-03-30T07:37:08.488Z,31.15
2018-03-30T07:38:11.842Z,24.65
2018-03-30T07:39:14.467Z,31.02
2018-03-30T07:40:17.836Z,24.80
2018-03-30T07:41:20.342Z,25.60
2018-03-30T07:42:22.799Z,37.70
2018-03-30T07:43:25.399Z,27.42
2018-03-30T07:44:27.912Z,23.60
2018-03-30T07:45:30.426Z,45.35
2018-03-30T07:46:33.704Z,29.70
2018-03-30T07:47:36.186Z,28.98
2018-03-30T07:48:39.522Z,26.42
2018-03-30T07:49:42.818Z,26.52
2018-03-30T07:50:45.305Z,22.83
2018-03-30T07:51:47.808Z,56.20
2018-03-30T07:52:51.080Z,33.13
2018-03-30T07:53:54.472Z,26.08
2018-03-30T07:54:56.953Z,26.67
2018-03-30T07:56:00.200Z,26.62
2018-03-30T07:57:03.445Z,36.63
2018-03-30T07:58:05.943Z,27.13
2018-03-30T07:59:08.415Z,31.10
2018-03-30T08:00:10.876Z,57.17
2018-03-30T08:01:13.368Z,27.55
2018-03-30T08:02:15.913Z,24.55
2018-03-30T08:03:18.415Z,23.05
2018-03-30T08:04:20.898Z,24.63
2018-03-30T08:05:24.172Z,26.35
2018-03-30T08:06:26.667Z,42.42
2018-03-30T08:07:29.236Z,26.92
2018-03-30T08:08:31.783Z,36.30
2018-03-30T08:09:34.232Z,23.40
2018-03-30T08:10:37.102Z,26.42
2018-03-30T08:11:39.585Z,26.65
2018-03-30T08:12:42.058Z,27.23
2018-03-30T08:13:44.560Z,22.77
2018-03-30T08:14:47.823Z,38.53
2018-03-30T08:15:50.287Z,27.20
2018-03-30T08:16:53.408Z,22.13
2018-03-30T08:17:56.030Z,29.10
2018-03-30T08:18:58.536Z,30.25
2018-03-30T08:20:01.031Z,21.85
2018-03-30T08:21:04.417Z,26.85
2018-03-30T08:22:06.993Z,22.33
2018-03-30T08:23:09.608Z,23.00
2018-03-30T08:24:12.208Z,25.40
2018-03-30T08:25:14.678Z,29.85
2018-03-30T08:26:17.151Z,25.45
2018-03-30T08:27:19.655Z,21.98
2018-03-30T08:28:23.046Z,20.75
2018-03-30T08:29:26.311Z,23.25
2018-03-30T08:30:28.787Z,26.70
2018-03-30T08:31:31.272Z,21.40
2018-03-30T08:32:33.754Z,25.75
2018-03-30T08:33:36.301Z,23.02
2018-03-30T08:34:38.781Z,24.02
2018-03-30T08:35:41.270Z,22.10
2018-03-30T08:36:43.954Z,24.10
2018-03-30T08:37:46.431Z,23.77
2018-03-30T08:38:48.918Z,21.67
2018-03-30T08:39:51.449Z,21.23
2018-03-30T08:40:53.978Z,20.85
2018-03-30T08:41:56.446Z,21.42
2018-03-30T08:42:59.677Z,23.27
2018-03-30T08:44:02.173Z,21.80
2018-03-30T08:45:04.633Z,18.25
2018-03-30T08:46:08.006Z,21.33
2018-03-30T08:47:10.486Z,22.70
2018-03-30T08:48:12.971Z,20.10
2018-03-30T08:49:15.473Z,22.17
2018-03-30T08:50:17.926Z,21.12
2018-03-30T08:51:20.474Z,19.65
2018-03-30T08:52:23.005Z,18.70
2018-03-30T08:53:25.591Z,18.65
2018-03-30T08:54:28.099Z,20.90
2018-03-30T08:55:30.570Z,20.77
2018-03-30T08:56:33.039Z,21.92
2018-03-30T08:57:36.315Z,18.70
2018-03-30T08:58:38.782Z,19.12
2018-03-30T08:59:41.245Z,20.62
2018-03-30T09:00:43.736Z,20.85
2018-03-30T09:01:46.224Z,16.40
2018-03-30T09:02:48.685Z,19.40
2018-03-30T09:03:51.162Z,21.62
2018-03-30T09:04:53.617Z,21.75
2018-03-30T09:05:56.093Z,22.87
2018-03-30T09:06:59.430Z,19.85
2018-03-30T09:08:02.657Z,18.87
2018-03-30T09:09:05.901Z,18.92
2018-03-30T09:10:09.168Z,20.17
2018-03-30T09:11:11.674Z,21.87
2018-03-30T09:12:14.926Z,17.90
2018-03-30T09:13:18.142Z,21.10
2018-03-30T09:14:20.965Z,20.67
2018-03-30T09:15:23.439Z,23.67
2018-03-30T09:16:25.940Z,18.55
2018-03-30T09:17:29.199Z,23.08
2018-03-30T09:18:31.684Z,22.50
2018-03-30T09:19:34.175Z,20.17
2018-03-30T09:20:36.635Z,21.48
2018-03-30T09:21:39.509Z,21.52
2018-03-30T09:22:41.984Z,21.23
2018-03-30T09:23:44.558Z,19.45
2018-03-30T09:24:47.014Z,24.35
2018-03-30T09:25:49.478Z,23.27
2018-03-30T09:26:51.953Z,20.83
2018-03-30T09:27:54.441Z,22.25
2018-03-30T09:28:57.796Z,23.20
2018-03-30T09:30:01.054Z,21.87
2018-03-30T09:31:03.533Z,21.95
2018-03-30T09:32:06.036Z,22.20
2018-03-30T09:33:14.199Z,21.33
2018-03-30T09:34:16.762Z,20.67
2018-03-30T09:35:20.092Z,21.48
2018-03-30T09:36:22.693Z,26.70
2018-03-30T09:37:25.189Z,18.92
2018-03-30T09:38:27.667Z,21.08
2018-03-30T09:39:30.122Z,22.33
2018-03-30T09:40:32.880Z,22.45
2018-03-30T09:41:35.381Z,24.73
2018-03-30T09:42:37.860Z,24.77
2018-03-30T09:43:40.347Z,23.83
2018-03-30T09:44:42.853Z,21.25
2018-03-30T09:45:46.288Z,25.12
2018-03-30T09:46:49.642Z,21.40
2018-03-30T09:47:52.319Z,23.52
2018-03-30T09:48:55.735Z,22.65
2018-03-30T09:50:02.940Z,22.30
2018-03-30T09:51:06.519Z,24.87
2018-03-30T09:52:10.226Z,21.17
2018-03-30T09:53:15.387Z,23.35
2018-03-30T09:54:18.311Z,23.23
2018-03-30T09:55:20.860Z,25.40
2018-03-30T09:56:23.364Z,24.15
2018-03-30T09:57:26.608Z,24.77
2018-03-30T09:58:29.134Z,23.10
2018-03-30T09:59:31.625Z,22.80
2018-03-30T10:00:34.166Z,25.60
2018-03-30T10:01:36.705Z,22.50
2018-03-30T10:02:39.484Z,23.40
2018-03-30T10:03:56.739Z,21.52
2018-03-30T10:05:01.422Z,24.75
2018-03-30T10:06:05.715Z,20.67
2018-03-30T10:07:08.198Z,23.52
2018-03-30T10:08:10.788Z,21.73
2018-03-30T10:09:13.324Z,20.33
2018-03-30T10:10:15.857Z,19.75
2018-03-30T10:11:18.415Z,23.05
2018-03-30T10:12:21.050Z,19.58
2018-03-30T10:13:24.343Z,19.95
2018-03-30T10:14:26.956Z,22.00
2018-03-30T10:15:29.456Z,21.35
2018-03-30T10:16:32.705Z,23.95
2018-03-30T10:17:35.240Z,19.05
2018-03-30T10:18:37.735Z,20.85
2018-03-30T10:19:41.001Z,22.35
2018-03-30T10:20:43.562Z,24.50
2018-03-30T10:21:46.119Z,22.40
2018-03-30T10:22:48.632Z,21.48
2018-03-30T10:23:51.114Z,24.58
2018-03-30T10:24:53.603Z,24.30
2018-03-30T10:25:56.135Z,22.08
2018-03-30T10:26:59.416Z,22.85
2018-03-30T10:28:01.894Z,24.35
2018-03-30T10:29:06.907Z,22.20
2018-03-30T10:30:13.369Z,21.48
2018-03-30T10:31:16.065Z,23.58
2018-03-30T10:32:18.652Z,22.92
2018-03-30T10:33:21.219Z,21.25
2018-03-30T10:34:25.313Z,19.23
2018-03-30T10:35:28.706Z,22.20
2018-03-30T10:36:31.989Z,23.38
2018-03-30T10:37:34.494Z,23.95
2018-03-30T10:38:37.468Z,26.25
2018-03-30T10:39:39.995Z,23.20
2018-03-30T10:40:42.457Z,24.55
2018-03-30T10:41:45.802Z,24.67
2018-03-30T10:42:49.059Z,22.13
2018-03-30T10:43:51.570Z,22.05
2018-03-30T10:44:54.816Z,24.40
2018-03-30T10:45:57.298Z,22.62
2018-03-30T10:46:59.811Z,22.45
2018-03-30T10:48:05.231Z,25.73
2018-03-30T10:49:07.967Z,22.02
2018-03-30T10:50:10.575Z,23.83
2018-03-30T10:51:13.150Z,25.05
2018-03-30T10:52:15.745Z,25.55
2018-03-30T10:53:20.204Z,27.30
2018-03-30T10:54:23.662Z,23.50
2018-03-30T10:55:26.172Z,24.77
2018-03-30T10:56:29.456Z,24.45
2018-03-30T10:57:32.695Z,25.50
2018-03-30T10:58:35.964Z,26.52
2018-03-30T10:59:39.212Z,26.45
2018-03-30T11:00:43.935Z,26.12
2018-03-30T11:01:46.827Z,23.38
2018-03-30T11:02:49.919Z,28.52
2018-03-30T11:03:52.422Z,26.00
2018-03-30T11:04:55.068Z,26.77
2018-03-30T11:05:57.523Z,25.70
2018-03-30T11:06:59.981Z,24.52
2018-03-30T11:08:02.529Z,26.92
2018-03-30T11:09:05.024Z,30.30
2018-03-30T11:10:08.187Z,24.58
2018-03-30T11:11:10.666Z,29.05
2018-03-30T11:12:13.164Z,25.45
2018-03-30T11:13:16.432Z,29.00
2018-03-30T11:14:18.956Z,27.87
2018-03-30T11:15:21.524Z,29.65
2018-03-30T11:16:24.012Z,26.60
2018-03-30T11:17:27.176Z,22.83
2018-03-30T11:18:29.645Z,23.85
2018-03-30T11:19:32.133Z,21.85
2018-03-30T11:20:34.605Z,27.35
2018-03-30T11:21:37.857Z,24.50
2018-03-30T11:22:40.390Z,30.90
2018-03-30T11:23:43.647Z,28.10
2018-03-30T11:24:46.170Z,26.37
2018-03-30T11:25:48.658Z,25.80
2018-03-30T11:26:51.209Z,26.80
2018-03-30T11:27:53.748Z,26.20
2018-03-30T11:28:56.283Z,27.08
2018-03-30T11:29:58.890Z,28.48
2018-03-30T11:31:01.428Z,24.45
2018-03-30T11:32:03.890Z,26.62
2018-03-30T11:33:06.358Z,26.12
2018-03-30T11:34:09.612Z,25.77
2018-03-30T11:35:12.135Z,26.35
2018-03-30T11:36:14.646Z,29.20
2018-03-30T11:37:17.885Z,25.10
2018-03-30T11:38:21.137Z,25.02
2018-03-30T11:39:24.407Z,25.25
2018-03-30T11:40:26.963Z,26.17
2018-03-30T11:41:29.466Z,25.92
2018-03-30T11:42:32.018Z,25.02
2018-03-30T11:43:34.734Z,24.50
2018-03-30T11:44:37.470Z,26.12
2018-03-30T11:45:40.641Z,25.05
2018-03-30T11:46:43.195Z,24.55
2018-03-30T11:47:45.650Z,26.30
2018-03-30T11:48:48.990Z,24.98
2018-03-30T11:49:51.575Z,26.58
2018-03-30T11:50:54.831Z,23.67
2018-03-30T11:51:57.384Z,28.38
2018-03-30T11:53:00.783Z,28.20
2018-03-30T11:54:03.316Z,28.23
2018-03-30T11:55:06.701Z,24.45
2018-03-30T11:56:09.300Z,22.35
2018-03-30T11:57:12.632Z,24.35
2018-03-30T11:58:15.199Z,23.17
2018-03-30T11:59:17.702Z,24.10
2018-03-30T12:00:20.295Z,25.00
2018-03-30T12:01:24.220Z,25.23
2018-03-30T12:02:26.788Z,22.98
2018-03-30T12:03:29.499Z,27.85
2018-03-30T12:04:32.035Z,23.70
2018-03-30T12:05:34.625Z,24.65
2018-03-30T12:06:37.708Z,24.37
2018-03-30T12:07:41.015Z,22.42
2018-03-30T12:08:43.773Z,24.35
2018-03-30T12:09:46.452Z,21.05
2018-03-30T12:10:49.226Z,23.00
2018-03-30T12:11:55.471Z,21.35
2018-03-30T12:12:58.590Z,23.27
2018-03-30T12:14:01.126Z,23.20
2018-03-30T12:15:03.634Z,24.30
2018-03-30T12:16:06.277Z,19.30
2018-03-30T12:17:08.759Z,23.67
2018-03-30T12:18:12.231Z,24.87
2018-03-30T12:19:14.727Z,26.80
2018-03-30T12:20:17.750Z,23.15
2018-03-30T12:21:20.231Z,22.83
2018-03-30T12:22:23.483Z,23.10
2018-03-30T12:23:26.729Z,23.65
2018-03-30T12:24:29.966Z,21.37
2018-03-30T12:25:33.306Z,25.33
2018-03-30T12:26:35.801Z,21.40
2018-03-30T12:27:38.293Z,20.17
2018-03-30T12:28:40.843Z,18.45
2018-03-30T12:29:43.390Z,27.35
2018-03-30T12:30:46.523Z,20.52
2018-03-30T12:31:49.106Z,20.77
2018-03-30T12:32:52.620Z,22.48
2018-03-30T12:33:55.908Z,21.30
2018-03-30T12:34:58.510Z,20.15
2018-03-30T12:36:00.979Z,21.73
2018-03-30T12:37:03.461Z,21.98
2018-03-30T12:38:05.953Z,22.65
2018-03-30T12:39:08.474Z,19.35
2018-03-30T12:40:10.925Z,22.45
2018-03-30T12:41:14.206Z,20.90
2018-03-30T12:42:16.800Z,20.70
2018-03-30T12:43:20.057Z,20.08
2018-03-30T12:44:23.314Z,21.12
2018-03-30T12:45:25.814Z,20.10
2018-03-30T12:46:29.084Z,22.37
2018-03-30T12:47:31.582Z,21.33
2018-03-30T12:48:34.838Z,24.23
2018-03-30T12:49:37.429Z,24.92
2018-03-30T12:50:39.931Z,21.65
2018-03-30T12:51:42.427Z,19.73
2018-03-30T12:52:45.050Z,18.15
2018-03-30T12:53:47.571Z,21.77
2018-03-30T12:54:50.826Z,19.90
2018-03-30T12:55:53.320Z,20.00
2018-03-30T12:56:56.693Z,18.77
2018-03-30T12:57:59.358Z,20.27
2018-03-30T12:59:02.183Z,20.27
2018-03-30T13:00:04.829Z,19.42
2018-03-30T13:01:07.344Z,20.27
2018-03-30T13:02:09.880Z,21.27
2018-03-30T13:03:12.389Z,19.45
2018-03-30T13:04:14.967Z,21.08
2018-03-30T13:05:17.463Z,18.67
2018-03-30T13:06:20.134Z,22.27
2018-03-30T13:07:23.394Z,23.38
2018-03-30T13:08:25.881Z,22.67
2018-03-30T13:09:29.122Z,26.50
2018-03-30T13:10:32.380Z,23.50
2018-03-30T13:11:35.684Z,20.58
2018-03-30T13:12:38.215Z,20.62
2018-03-30T13:13:40.700Z,21.70
2018-03-30T13:14:43.186Z,20.65
2018-03-30T13:15:45.666Z,18.40
2018-03-30T13:16:48.168Z,18.95
2018-03-30T13:17:50.643Z,18.35
2018-03-30T13:18:54.655Z,18.98
2018-03-30T13:19:57.472Z,20.75
2018-03-30T13:21:01.353Z,21.75
2018-03-30T13:22:04.990Z,20.00
2018-03-30T13:23:07.732Z,20.52
2018-03-30T13:24:10.333Z,19.95
2018-03-30T13:25:12.873Z,19.45
2018-03-30T13:26:16.940Z,20.85
2018-03-30T13:27:19.915Z,22.55
2018-03-30T13:28:22.666Z,19.20
2018-03-30T13:29:25.461Z,18.35
2018-03-30T13:30:27.959Z,19.65